sensor_id;sensor_type;location;lat;lon;timestamp;P1;durP1;ratioP1;P2;durP2;ratioP2
4268;SDS011;2148;48.554;7.834;2022-09-09T00:01:38;2.60;;;1.60;;
4268;SDS011;2148;48.554;7.834;2022-09-09T00:06:59;5.70;;;1.70;;
4268;SDS011;2148;48.554;7.834;2022-09-09T00:09:29;3.87;;;1.87;;
4268;SDS011;2148;48.554;7.834;2022-09-09T00:14:45;3.40;;;1.70;;
4268;SDS011;2148;48.554;7.834;2022-09-09T00:17:32;2.80;;;1.83;;
4268;SDS011;2148;48.554;7.834;2022-09-09T00:22:47;3.60;;;1.80;;
4268;SDS011;2148;48.554;7.834;2022-09-09T00:25:36;4.33;;;1.70;;
4268;SDS011;2148;48.554;7.834;2022-09-09T00:28:08;3.83;;;1.77;;
4268;SDS011;2148;48.554;7.834;2022-09-09T00:30:39;9.67;;;1.80;;
4268;SDS011;2148;48.554;7.834;2022-09-09T00:33:12;6.03;;;1.70;;
4268;SDS011;2148;48.554;7.834;2022-09-09T00:35:49;3.33;;;1.43;;
4268;SDS011;2148;48.554;7.834;2022-09-09T00:38:18;2.83;;;1.53;;
4268;SDS011;2148;48.554;7.834;2022-09-09T00:40:50;2.60;;;1.40;;
4268;SDS011;2148;48.554;7.834;2022-09-09T00:45:51;3.73;;;1.33;;
4268;SDS011;2148;48.554;7.834;2022-09-09T00:48:17;2.37;;;1.30;;
4268;SDS011;2148;48.554;7.834;2022-09-09T00:58:33;3.40;;;1.20;;
4268;SDS011;2148;48.554;7.834;2022-09-09T01:01:04;2.27;;;1.57;;
4268;SDS011;2148;48.554;7.834;2022-09-09T01:06:12;2.90;;;1.30;;
4268;SDS011;2148;48.554;7.834;2022-09-09T01:11:49;1.67;;;1.10;;
4268;SDS011;2148;48.554;7.834;2022-09-09T01:14:30;2.17;;;1.20;;
4268;SDS011;2148;48.554;7.834;2022-09-09T01:27:46;3.53;;;1.23;;
4268;SDS011;2148;48.554;7.834;2022-09-09T01:30:13;1.87;;;1.27;;
4268;SDS011;2148;48.554;7.834;2022-09-09T01:35:09;2.13;;;1.20;;
4268;SDS011;2148;48.554;7.834;2022-09-09T01:37:38;2.13;;;1.20;;
4268;SDS011;2148;48.554;7.834;2022-09-09T01:40:03;1.53;;;1.00;;
4268;SDS011;2148;48.554;7.834;2022-09-09T01:42:28;2.03;;;1.30;;
4268;SDS011;2148;48.554;7.834;2022-09-09T01:44:54;1.53;;;1.20;;
4268;SDS011;2148;48.554;7.834;2022-09-09T01:47:20;1.67;;;1.10;;
4268;SDS011;2148;48.554;7.834;2022-09-09T01:49:45;2.23;;;1.30;;
4268;SDS011;2148;48.554;7.834;2022-09-09T01:52:10;1.53;;;1.10;;
4268;SDS011;2148;48.554;7.834;2022-09-09T01:54:35;2.90;;;1.50;;
4268;SDS011;2148;48.554;7.834;2022-09-09T02:06:08;2.60;;;1.03;;
4268;SDS011;2148;48.554;7.834;2022-09-09T02:08:32;2.47;;;0.97;;
4268;SDS011;2148;48.554;7.834;2022-09-09T02:13:34;2.23;;;1.20;;
4268;SDS011;2148;48.554;7.834;2022-09-09T02:16:12;2.30;;;1.20;;
4268;SDS011;2148;48.554;7.834;2022-09-09T02:18:48;2.20;;;1.13;;
4268;SDS011;2148;48.554;7.834;2022-09-09T02:21:16;1.60;;;1.30;;
4268;SDS011;2148;48.554;7.834;2022-09-09T02:23:42;2.83;;;1.30;;
4268;SDS011;2148;48.554;7.834;2022-09-09T02:26:11;1.33;;;1.03;;
4268;SDS011;2148;48.554;7.834;2022-09-09T02:28:43;2.67;;;1.07;;
4268;SDS011;2148;48.554;7.834;2022-09-09T02:31:08;1.67;;;1.20;;
4268;SDS011;2148;48.554;7.834;2022-09-09T02:33:36;1.73;;;1.20;;
4268;SDS011;2148;48.554;7.834;2022-09-09T02:36:03;2.27;;;1.13;;
4268;SDS011;2148;48.554;7.834;2022-09-09T02:38:32;2.90;;;1.10;;
4268;SDS011;2148;48.554;7.834;2022-09-09T02:41:00;2.27;;;1.13;;
4268;SDS011;2148;48.554;7.834;2022-09-09T02:43:30;2.73;;;1.27;;
4268;SDS011;2148;48.554;7.834;2022-09-09T02:46:01;1.73;;;1.20;;
4268;SDS011;2148;48.554;7.834;2022-09-09T02:48:39;1.80;;;1.20;;
4268;SDS011;2148;48.554;7.834;2022-09-09T02:51:24;1.67;;;1.10;;
4268;SDS011;2148;48.554;7.834;2022-09-09T02:53:59;2.23;;;1.20;;
4268;SDS011;2148;48.554;7.834;2022-09-09T02:56:31;2.80;;;1.30;;
4268;SDS011;2148;48.554;7.834;2022-09-09T02:59:02;2.93;;;1.43;;
4268;SDS011;2148;48.554;7.834;2022-09-09T03:01:28;1.93;;;1.23;;
4268;SDS011;2148;48.554;7.834;2022-09-09T03:03:54;2.90;;;1.00;;
4268;SDS011;2148;48.554;7.834;2022-09-09T03:06:19;2.00;;;1.20;;
4268;SDS011;2148;48.554;7.834;2022-09-09T03:08:45;3.07;;;1.27;;
4268;SDS011;2148;48.554;7.834;2022-09-09T03:11:10;1.90;;;1.40;;
4268;SDS011;2148;48.554;7.834;2022-09-09T03:13:35;1.93;;;1.10;;
4268;SDS011;2148;48.554;7.834;2022-09-09T03:16:02;1.47;;;1.10;;
4268;SDS011;2148;48.554;7.834;2022-09-09T03:18:28;2.50;;;1.13;;
4268;SDS011;2148;48.554;7.834;2022-09-09T03:20:54;1.50;;;1.17;;
4268;SDS011;2148;48.554;7.834;2022-09-09T03:23:19;2.50;;;1.10;;
4268;SDS011;2148;48.554;7.834;2022-09-09T03:25:49;3.63;;;1.23;;
4268;SDS011;2148;48.554;7.834;2022-09-09T03:28:14;1.60;;;1.10;;
4268;SDS011;2148;48.554;7.834;2022-09-09T03:30:40;3.07;;;1.20;;
4268;SDS011;2148;48.554;7.834;2022-09-09T03:33:05;2.27;;;1.20;;
4268;SDS011;2148;48.554;7.834;2022-09-09T03:35:31;3.00;;;1.20;;
4268;SDS011;2148;48.554;7.834;2022-09-09T03:37:56;1.77;;;1.10;;
4268;SDS011;2148;48.554;7.834;2022-09-09T03:40:21;2.30;;;1.20;;
4268;SDS011;2148;48.554;7.834;2022-09-09T03:42:46;3.10;;;1.20;;
4268;SDS011;2148;48.554;7.834;2022-09-09T03:45:13;2.27;;;1.20;;
4268;SDS011;2148;48.554;7.834;2022-09-09T03:47:38;3.33;;;1.23;;
4268;SDS011;2148;48.554;7.834;2022-09-09T03:50:04;2.40;;;1.33;;
4268;SDS011;2148;48.554;7.834;2022-09-09T03:52:34;3.10;;;1.37;;
4268;SDS011;2148;48.554;7.834;2022-09-09T03:55:00;1.63;;;1.23;;
4268;SDS011;2148;48.554;7.834;2022-09-09T03:57:26;1.77;;;1.27;;
4268;SDS011;2148;48.554;7.834;2022-09-09T03:59:51;2.50;;;1.23;;
4268;SDS011;2148;48.554;7.834;2022-09-09T04:02:17;3.23;;;1.20;;
4268;SDS011;2148;48.554;7.834;2022-09-09T04:04:42;2.40;;;1.07;;
4268;SDS011;2148;48.554;7.834;2022-09-09T04:07:07;1.20;;;1.10;;
4268;SDS011;2148;48.554;7.834;2022-09-09T04:09:33;2.67;;;1.10;;
4268;SDS011;2148;48.554;7.834;2022-09-09T04:11:59;2.13;;;1.27;;
4268;SDS011;2148;48.554;7.834;2022-09-09T04:14:24;2.00;;;1.10;;
4268;SDS011;2148;48.554;7.834;2022-09-09T04:16:52;3.87;;;1.63;;
4268;SDS011;2148;48.554;7.834;2022-09-09T04:19:18;1.90;;;1.27;;
4268;SDS011;2148;48.554;7.834;2022-09-09T04:21:43;2.50;;;1.20;;
4268;SDS011;2148;48.554;7.834;2022-09-09T04:24:08;1.30;;;1.20;;
4268;SDS011;2148;48.554;7.834;2022-09-09T04:26:34;1.53;;;1.20;;
4268;SDS011;2148;48.554;7.834;2022-09-09T04:29:01;1.90;;;1.10;;
4268;SDS011;2148;48.554;7.834;2022-09-09T04:31:27;2.90;;;1.50;;
4268;SDS011;2148;48.554;7.834;2022-09-09T04:33:52;3.83;;;1.50;;
4268;SDS011;2148;48.554;7.834;2022-09-09T04:36:18;3.23;;;1.20;;
4268;SDS011;2148;48.554;7.834;2022-09-09T04:38:46;4.83;;;1.50;;
4268;SDS011;2148;48.554;7.834;2022-09-09T04:41:13;4.33;;;1.33;;
4268;SDS011;2148;48.554;7.834;2022-09-09T04:43:39;2.03;;;1.50;;
4268;SDS011;2148;48.554;7.834;2022-09-09T04:46:04;2.33;;;1.67;;
4268;SDS011;2148;48.554;7.834;2022-09-09T04:48:30;5.77;;;1.47;;
4268;SDS011;2148;48.554;7.834;2022-09-09T04:51:00;1.80;;;1.40;;
4268;SDS011;2148;48.554;7.834;2022-09-09T04:53:28;3.03;;;1.67;;
4268;SDS011;2148;48.554;7.834;2022-09-09T04:56:03;4.53;;;1.70;;
4268;SDS011;2148;48.554;7.834;2022-09-09T04:58:29;2.60;;;1.30;;
4268;SDS011;2148;48.554;7.834;2022-09-09T05:00:55;2.37;;;2.00;;
4268;SDS011;2148;48.554;7.834;2022-09-09T05:03:20;1.80;;;1.60;;
4268;SDS011;2148;48.554;7.834;2022-09-09T05:05:46;3.97;;;1.40;;
4268;SDS011;2148;48.554;7.834;2022-09-09T05:08:11;2.90;;;1.60;;
4268;SDS011;2148;48.554;7.834;2022-09-09T05:10:37;2.43;;;1.20;;
4268;SDS011;2148;48.554;7.834;2022-09-09T05:13:03;2.10;;;1.67;;
4268;SDS011;2148;48.554;7.834;2022-09-09T05:15:29;4.03;;;1.47;;
4268;SDS011;2148;48.554;7.834;2022-09-09T05:18:01;3.30;;;1.50;;
4268;SDS011;2148;48.554;7.834;2022-09-09T05:20:27;3.47;;;1.70;;
4268;SDS011;2148;48.554;7.834;2022-09-09T05:22:53;4.77;;;1.80;;
4268;SDS011;2148;48.554;7.834;2022-09-09T05:25:19;4.37;;;1.53;;
4268;SDS011;2148;48.554;7.834;2022-09-09T05:27:45;4.60;;;1.97;;
4268;SDS011;2148;48.554;7.834;2022-09-09T05:30:10;3.47;;;1.63;;
4268;SDS011;2148;48.554;7.834;2022-09-09T05:32:36;2.20;;;2.00;;
4268;SDS011;2148;48.554;7.834;2022-09-09T05:35:01;3.23;;;1.60;;
4268;SDS011;2148;48.554;7.834;2022-09-09T05:37:27;2.43;;;1.80;;
4268;SDS011;2148;48.554;7.834;2022-09-09T05:39:52;4.33;;;2.00;;
4268;SDS011;2148;48.554;7.834;2022-09-09T05:42:18;2.63;;;1.80;;
4268;SDS011;2148;48.554;7.834;2022-09-09T05:44:43;3.00;;;1.90;;
4268;SDS011;2148;48.554;7.834;2022-09-09T05:47:09;4.60;;;1.90;;
4268;SDS011;2148;48.554;7.834;2022-09-09T05:49:35;4.53;;;2.17;;
4268;SDS011;2148;48.554;7.834;2022-09-09T05:52:00;3.20;;;2.00;;
4268;SDS011;2148;48.554;7.834;2022-09-09T05:54:26;3.60;;;1.90;;
4268;SDS011;2148;48.554;7.834;2022-09-09T05:56:51;4.27;;;2.10;;
4268;SDS011;2148;48.554;7.834;2022-09-09T05:59:18;2.80;;;1.80;;
4268;SDS011;2148;48.554;7.834;2022-09-09T06:01:43;5.63;;;2.07;;
4268;SDS011;2148;48.554;7.834;2022-09-09T06:04:10;4.10;;;2.07;;
4268;SDS011;2148;48.554;7.834;2022-09-09T06:06:36;2.27;;;2.03;;
4268;SDS011;2148;48.554;7.834;2022-09-09T06:09:02;4.10;;;2.10;;
4268;SDS011;2148;48.554;7.834;2022-09-09T06:11:31;3.67;;;2.13;;
4268;SDS011;2148;48.554;7.834;2022-09-09T06:13:57;4.83;;;2.10;;
4268;SDS011;2148;48.554;7.834;2022-09-09T06:16:23;4.63;;;2.00;;
4268;SDS011;2148;48.554;7.834;2022-09-09T06:18:50;4.63;;;2.20;;
4268;SDS011;2148;48.554;7.834;2022-09-09T06:21:19;5.93;;;2.20;;
4268;SDS011;2148;48.554;7.834;2022-09-09T06:23:49;5.83;;;2.13;;
4268;SDS011;2148;48.554;7.834;2022-09-09T06:26:25;3.20;;;2.17;;
4268;SDS011;2148;48.554;7.834;2022-09-09T06:28:57;4.37;;;2.03;;
4268;SDS011;2148;48.554;7.834;2022-09-09T06:31:24;5.17;;;2.20;;
4268;SDS011;2148;48.554;7.834;2022-09-09T06:33:51;6.33;;;2.00;;
4268;SDS011;2148;48.554;7.834;2022-09-09T06:36:19;3.83;;;2.17;;
4268;SDS011;2148;48.554;7.834;2022-09-09T06:38:45;3.40;;;2.00;;
4268;SDS011;2148;48.554;7.834;2022-09-09T06:41:12;5.33;;;2.00;;
4268;SDS011;2148;48.554;7.834;2022-09-09T06:43:38;5.43;;;2.37;;
4268;SDS011;2148;48.554;7.834;2022-09-09T06:46:08;4.70;;;2.20;;
4268;SDS011;2148;48.554;7.834;2022-09-09T06:48:36;4.90;;;1.90;;
4268;SDS011;2148;48.554;7.834;2022-09-09T06:51:06;4.07;;;1.90;;
4268;SDS011;2148;48.554;7.834;2022-09-09T06:53:33;4.50;;;1.90;;
4268;SDS011;2148;48.554;7.834;2022-09-09T06:56:16;8.10;;;2.57;;
4268;SDS011;2148;48.554;7.834;2022-09-09T06:58:42;5.23;;;2.23;;
4268;SDS011;2148;48.554;7.834;2022-09-09T07:01:15;3.87;;;1.80;;
4268;SDS011;2148;48.554;7.834;2022-09-09T07:03:41;3.27;;;1.73;;
4268;SDS011;2148;48.554;7.834;2022-09-09T07:06:08;4.03;;;2.20;;
4268;SDS011;2148;48.554;7.834;2022-09-09T07:08:34;4.47;;;1.80;;
4268;SDS011;2148;48.554;7.834;2022-09-09T07:11:08;6.13;;;2.10;;
4268;SDS011;2148;48.554;7.834;2022-09-09T07:13:34;4.03;;;1.90;;
4268;SDS011;2148;48.554;7.834;2022-09-09T07:16:07;2.57;;;1.50;;
4268;SDS011;2148;48.554;7.834;2022-09-09T07:18:37;4.43;;;1.60;;
4268;SDS011;2148;48.554;7.834;2022-09-09T07:21:02;3.80;;;1.73;;
4268;SDS011;2148;48.554;7.834;2022-09-09T07:23:28;4.60;;;1.80;;
4268;SDS011;2148;48.554;7.834;2022-09-09T07:25:54;4.40;;;1.83;;
4268;SDS011;2148;48.554;7.834;2022-09-09T07:28:20;3.07;;;1.60;;
4268;SDS011;2148;48.554;7.834;2022-09-09T07:30:55;3.93;;;1.87;;
4268;SDS011;2148;48.554;7.834;2022-09-09T07:33:22;2.70;;;1.80;;
4268;SDS011;2148;48.554;7.834;2022-09-09T07:36:01;4.20;;;2.07;;
4268;SDS011;2148;48.554;7.834;2022-09-09T07:38:28;5.47;;;1.83;;
4268;SDS011;2148;48.554;7.834;2022-09-09T07:40:54;2.57;;;1.90;;
4268;SDS011;2148;48.554;7.834;2022-09-09T07:43:28;2.40;;;1.57;;
4268;SDS011;2148;48.554;7.834;2022-09-09T07:45:59;2.93;;;1.70;;
4268;SDS011;2148;48.554;7.834;2022-09-09T07:48:26;3.10;;;1.40;;
4268;SDS011;2148;48.554;7.834;2022-09-09T07:50:51;3.83;;;1.67;;
4268;SDS011;2148;48.554;7.834;2022-09-09T07:53:16;3.00;;;1.50;;
4268;SDS011;2148;48.554;7.834;2022-09-09T07:55:42;3.60;;;1.70;;
4268;SDS011;2148;48.554;7.834;2022-09-09T07:58:07;1.83;;;1.60;;
4268;SDS011;2148;48.554;7.834;2022-09-09T08:00:32;6.27;;;1.83;;
4268;SDS011;2148;48.554;7.834;2022-09-09T08:02:58;3.70;;;1.93;;
4268;SDS011;2148;48.554;7.834;2022-09-09T08:05:25;3.83;;;1.50;;
4268;SDS011;2148;48.554;7.834;2022-09-09T08:07:51;2.80;;;1.60;;
4268;SDS011;2148;48.554;7.834;2022-09-09T08:10:16;4.10;;;1.67;;
4268;SDS011;2148;48.554;7.834;2022-09-09T08:12:42;2.83;;;1.63;;
4268;SDS011;2148;48.554;7.834;2022-09-09T08:15:08;3.07;;;1.63;;
4268;SDS011;2148;48.554;7.834;2022-09-09T08:17:33;2.47;;;1.63;;
4268;SDS011;2148;48.554;7.834;2022-09-09T08:19:58;1.57;;;1.47;;
4268;SDS011;2148;48.554;7.834;2022-09-09T08:22:28;4.17;;;1.30;;
4268;SDS011;2148;48.554;7.834;2022-09-09T08:24:54;5.63;;;1.77;;
4268;SDS011;2148;48.554;7.834;2022-09-09T08:27:19;6.03;;;2.07;;
4268;SDS011;2148;48.554;7.834;2022-09-09T08:29:44;3.40;;;1.77;;
4268;SDS011;2148;48.554;7.834;2022-09-09T08:32:10;2.27;;;1.50;;
4268;SDS011;2148;48.554;7.834;2022-09-09T08:34:35;3.40;;;1.60;;
4268;SDS011;2148;48.554;7.834;2022-09-09T08:37:00;2.90;;;1.53;;
4268;SDS011;2148;48.554;7.834;2022-09-09T08:39:25;3.43;;;1.60;;
4268;SDS011;2148;48.554;7.834;2022-09-09T08:42:00;3.53;;;1.30;;
4268;SDS011;2148;48.554;7.834;2022-09-09T08:50:26;2.77;;;1.57;;
4268;SDS011;2148;48.554;7.834;2022-09-09T08:58:30;4.57;;;1.80;;
4268;SDS011;2148;48.554;7.834;2022-09-09T09:09:54;5.03;;;1.53;;
4268;SDS011;2148;48.554;7.834;2022-09-09T09:12:38;3.67;;;1.40;;
4268;SDS011;2148;48.554;7.834;2022-09-09T09:15:11;3.57;;;1.50;;
4268;SDS011;2148;48.554;7.834;2022-09-09T09:17:42;2.77;;;1.63;;
4268;SDS011;2148;48.554;7.834;2022-09-09T09:20:11;6.03;;;1.80;;
4268;SDS011;2148;48.554;7.834;2022-09-09T09:22:50;6.77;;;2.07;;
4268;SDS011;2148;48.554;7.834;2022-09-09T09:25:21;3.70;;;1.80;;
4268;SDS011;2148;48.554;7.834;2022-09-09T09:30:21;3.97;;;1.90;;
4268;SDS011;2148;48.554;7.834;2022-09-09T09:32:54;3.57;;;1.90;;
4268;SDS011;2148;48.554;7.834;2022-09-09T09:35:23;3.33;;;1.73;;
4268;SDS011;2148;48.554;7.834;2022-09-09T09:37:48;4.73;;;1.87;;
4268;SDS011;2148;48.554;7.834;2022-09-09T09:40:15;5.10;;;1.67;;
4268;SDS011;2148;48.554;7.834;2022-09-09T09:42:56;3.70;;;1.70;;
4268;SDS011;2148;48.554;7.834;2022-09-09T09:48:00;5.47;;;1.97;;
4268;SDS011;2148;48.554;7.834;2022-09-09T09:50:30;5.17;;;1.73;;
4268;SDS011;2148;48.554;7.834;2022-09-09T09:52:57;4.97;;;1.70;;
4268;SDS011;2148;48.554;7.834;2022-09-09T09:55:33;4.37;;;1.70;;
4268;SDS011;2148;48.554;7.834;2022-09-09T09:58:00;4.77;;;1.63;;
4268;SDS011;2148;48.554;7.834;2022-09-09T10:00:27;7.20;;;1.83;;
4268;SDS011;2148;48.554;7.834;2022-09-09T10:02:52;3.53;;;1.67;;
4268;SDS011;2148;48.554;7.834;2022-09-09T10:05:22;5.37;;;1.90;;
4268;SDS011;2148;48.554;7.834;2022-09-09T10:10:49;4.50;;;1.40;;
4268;SDS011;2148;48.554;7.834;2022-09-09T10:13:29;4.67;;;1.60;;
4268;SDS011;2148;48.554;7.834;2022-09-09T10:16:05;3.87;;;1.40;;
4268;SDS011;2148;48.554;7.834;2022-09-09T10:21:28;3.60;;;1.43;;
4268;SDS011;2148;48.554;7.834;2022-09-09T10:30:00;2.40;;;1.33;;
4268;SDS011;2148;48.554;7.834;2022-09-09T10:45:59;1.20;;;1.10;;
4268;SDS011;2148;48.554;7.834;2022-09-09T10:51:33;4.23;;;1.33;;
4268;SDS011;2148;48.554;7.834;2022-09-09T10:57:02;2.20;;;1.50;;
4268;SDS011;2148;48.554;7.834;2022-09-09T10:59:36;1.40;;;1.20;;
4268;SDS011;2148;48.554;7.834;2022-09-09T11:04:58;2.83;;;1.33;;
4268;SDS011;2148;48.554;7.834;2022-09-09T11:10:03;3.40;;;1.20;;
4268;SDS011;2148;48.554;7.834;2022-09-09T11:12:36;1.90;;;0.80;;
4268;SDS011;2148;48.554;7.834;2022-09-09T11:15:04;2.63;;;1.10;;
4268;SDS011;2148;48.554;7.834;2022-09-09T11:17:36;1.67;;;1.33;;
4268;SDS011;2148;48.554;7.834;2022-09-09T11:20:06;2.23;;;1.20;;
4268;SDS011;2148;48.554;7.834;2022-09-09T11:22:37;2.87;;;1.37;;
4268;SDS011;2148;48.554;7.834;2022-09-09T11:27:56;1.53;;;1.20;;
4268;SDS011;2148;48.554;7.834;2022-09-09T11:30:33;3.07;;;1.10;;
4268;SDS011;2148;48.554;7.834;2022-09-09T11:38:45;2.40;;;1.30;;
4268;SDS011;2148;48.554;7.834;2022-09-09T11:41:12;3.17;;;1.43;;
4268;SDS011;2148;48.554;7.834;2022-09-09T11:43:43;4.50;;;1.87;;
4268;SDS011;2148;48.554;7.834;2022-09-09T11:46:09;5.57;;;1.50;;
4268;SDS011;2148;48.554;7.834;2022-09-09T11:48:36;3.80;;;1.60;;
4268;SDS011;2148;48.554;7.834;2022-09-09T11:51:04;4.03;;;1.53;;
4268;SDS011;2148;48.554;7.834;2022-09-09T11:53:32;2.80;;;1.37;;
4268;SDS011;2148;48.554;7.834;2022-09-09T11:56:02;2.47;;;1.20;;
4268;SDS011;2148;48.554;7.834;2022-09-09T11:58:43;2.60;;;1.33;;
4268;SDS011;2148;48.554;7.834;2022-09-09T12:01:14;1.70;;;1.30;;
4268;SDS011;2148;48.554;7.834;2022-09-09T12:08:49;2.80;;;1.33;;
4268;SDS011;2148;48.554;7.834;2022-09-09T12:11:27;3.33;;;1.50;;
4268;SDS011;2148;48.554;7.834;2022-09-09T12:13:57;4.40;;;1.60;;
4268;SDS011;2148;48.554;7.834;2022-09-09T12:16:28;5.00;;;1.23;;
4268;SDS011;2148;48.554;7.834;2022-09-09T12:19:02;4.33;;;1.30;;
4268;SDS011;2148;48.554;7.834;2022-09-09T12:21:36;2.17;;;1.30;;
4268;SDS011;2148;48.554;7.834;2022-09-09T12:24:11;3.67;;;1.60;;
4268;SDS011;2148;48.554;7.834;2022-09-09T12:26:47;4.13;;;1.60;;
4268;SDS011;2148;48.554;7.834;2022-09-09T12:29:38;2.10;;;1.67;;
4268;SDS011;2148;48.554;7.834;2022-09-09T12:32:15;3.27;;;1.33;;
4268;SDS011;2148;48.554;7.834;2022-09-09T12:34:47;2.30;;;1.20;;
4268;SDS011;2148;48.554;7.834;2022-09-09T12:37:28;6.60;;;1.43;;
4268;SDS011;2148;48.554;7.834;2022-09-09T12:39:59;2.93;;;1.27;;
4268;SDS011;2148;48.554;7.834;2022-09-09T12:42:27;3.13;;;1.30;;
4268;SDS011;2148;48.554;7.834;2022-09-09T12:44:53;1.80;;;1.20;;
4268;SDS011;2148;48.554;7.834;2022-09-09T12:47:26;2.80;;;1.30;;
4268;SDS011;2148;48.554;7.834;2022-09-09T12:50:01;2.43;;;1.20;;
4268;SDS011;2148;48.554;7.834;2022-09-09T12:52:28;1.93;;;1.60;;
4268;SDS011;2148;48.554;7.834;2022-09-09T12:54:55;3.67;;;1.60;;
4268;SDS011;2148;48.554;7.834;2022-09-09T12:57:22;1.20;;;1.10;;
4268;SDS011;2148;48.554;7.834;2022-09-09T12:59:50;1.57;;;1.10;;
4268;SDS011;2148;48.554;7.834;2022-09-09T13:02:17;2.30;;;1.30;;
4268;SDS011;2148;48.554;7.834;2022-09-09T13:04:44;2.03;;;1.07;;
4268;SDS011;2148;48.554;7.834;2022-09-09T13:07:11;2.33;;;1.03;;
4268;SDS011;2148;48.554;7.834;2022-09-09T13:09:38;1.90;;;1.30;;
4268;SDS011;2148;48.554;7.834;2022-09-09T13:12:04;3.30;;;1.20;;
4268;SDS011;2148;48.554;7.834;2022-09-09T13:14:33;2.57;;;1.10;;
4268;SDS011;2148;48.554;7.834;2022-09-09T13:17:02;3.17;;;1.20;;
4268;SDS011;2148;48.554;7.834;2022-09-09T13:19:35;3.07;;;1.00;;
4268;SDS011;2148;48.554;7.834;2022-09-09T13:22:11;1.90;;;1.10;;
4268;SDS011;2148;48.554;7.834;2022-09-09T13:24:38;4.10;;;1.30;;
4268;SDS011;2148;48.554;7.834;2022-09-09T13:27:25;1.97;;;1.00;;
4268;SDS011;2148;48.554;7.834;2022-09-09T13:29:53;5.40;;;1.20;;
4268;SDS011;2148;48.554;7.834;2022-09-09T13:32:20;1.90;;;1.00;;
4268;SDS011;2148;48.554;7.834;2022-09-09T13:34:52;2.47;;;1.23;;
4268;SDS011;2148;48.554;7.834;2022-09-09T13:37:30;1.87;;;1.07;;
4268;SDS011;2148;48.554;7.834;2022-09-09T13:39:59;4.50;;;1.53;;
4268;SDS011;2148;48.554;7.834;2022-09-09T13:42:25;1.53;;;1.20;;
4268;SDS011;2148;48.554;7.834;2022-09-09T13:44:52;2.63;;;1.17;;
4268;SDS011;2148;48.554;7.834;2022-09-09T13:47:18;1.90;;;1.10;;
4268;SDS011;2148;48.554;7.834;2022-09-09T13:49:45;1.73;;;1.10;;
4268;SDS011;2148;48.554;7.834;2022-09-09T13:52:14;1.80;;;1.10;;
4268;SDS011;2148;48.554;7.834;2022-09-09T13:54:41;3.40;;;1.80;;
4268;SDS011;2148;48.554;7.834;2022-09-09T13:57:17;2.40;;;1.13;;
4268;SDS011;2148;48.554;7.834;2022-09-09T13:59:47;4.17;;;1.20;;
4268;SDS011;2148;48.554;7.834;2022-09-09T14:02:12;3.77;;;1.30;;
4268;SDS011;2148;48.554;7.834;2022-09-09T14:04:38;2.53;;;1.07;;
4268;SDS011;2148;48.554;7.834;2022-09-09T14:07:07;2.80;;;1.20;;
4268;SDS011;2148;48.554;7.834;2022-09-09T14:09:35;1.63;;;1.00;;
4268;SDS011;2148;48.554;7.834;2022-09-09T14:12:01;1.70;;;1.10;;
4268;SDS011;2148;48.554;7.834;2022-09-09T14:14:27;1.53;;;0.90;;
4268;SDS011;2148;48.554;7.834;2022-09-09T14:16:52;1.40;;;1.10;;
4268;SDS011;2148;48.554;7.834;2022-09-09T14:19:17;2.20;;;1.17;;
4268;SDS011;2148;48.554;7.834;2022-09-09T14:21:43;2.03;;;1.20;;
4268;SDS011;2148;48.554;7.834;2022-09-09T14:24:08;3.00;;;1.13;;
4268;SDS011;2148;48.554;7.834;2022-09-09T14:26:33;2.57;;;1.30;;
4268;SDS011;2148;48.554;7.834;2022-09-09T14:28:58;2.63;;;1.27;;
4268;SDS011;2148;48.554;7.834;2022-09-09T14:31:25;1.20;;;1.00;;
4268;SDS011;2148;48.554;7.834;2022-09-09T14:33:51;3.03;;;1.30;;
4268;SDS011;2148;48.554;7.834;2022-09-09T14:36:16;4.07;;;1.73;;
4268;SDS011;2148;48.554;7.834;2022-09-09T14:38:41;8.53;;;2.13;;
4268;SDS011;2148;48.554;7.834;2022-09-09T14:41:15;6.07;;;2.37;;
4268;SDS011;2148;48.554;7.834;2022-09-09T14:43:44;6.87;;;2.27;;
4268;SDS011;2148;48.554;7.834;2022-09-09T14:46:11;13.50;;;2.30;;
4268;SDS011;2148;48.554;7.834;2022-09-09T14:48:40;4.43;;;1.50;;
4268;SDS011;2148;48.554;7.834;2022-09-09T14:51:09;6.40;;;1.50;;
4268;SDS011;2148;48.554;7.834;2022-09-09T14:53:35;4.60;;;1.40;;
4268;SDS011;2148;48.554;7.834;2022-09-09T14:56:19;4.50;;;1.63;;
4268;SDS011;2148;48.554;7.834;2022-09-09T14:58:47;5.20;;;1.40;;
4268;SDS011;2148;48.554;7.834;2022-09-09T15:01:14;1.33;;;1.23;;
4268;SDS011;2148;48.554;7.834;2022-09-09T15:03:41;2.90;;;1.50;;
4268;SDS011;2148;48.554;7.834;2022-09-09T15:06:11;4.87;;;1.73;;
4268;SDS011;2148;48.554;7.834;2022-09-09T15:08:38;2.20;;;1.40;;
4268;SDS011;2148;48.554;7.834;2022-09-09T15:11:05;3.30;;;1.57;;
4268;SDS011;2148;48.554;7.834;2022-09-09T15:13:32;5.10;;;1.47;;
4268;SDS011;2148;48.554;7.834;2022-09-09T15:18:34;3.27;;;1.33;;
4268;SDS011;2148;48.554;7.834;2022-09-09T15:21:01;3.93;;;1.50;;
4268;SDS011;2148;48.554;7.834;2022-09-09T15:23:31;3.93;;;1.57;;
4268;SDS011;2148;48.554;7.834;2022-09-09T15:26:00;4.17;;;1.50;;
4268;SDS011;2148;48.554;7.834;2022-09-09T15:28:26;3.37;;;1.30;;
4268;SDS011;2148;48.554;7.834;2022-09-09T15:30:51;3.57;;;1.43;;
4268;SDS011;2148;48.554;7.834;2022-09-09T15:33:18;2.97;;;1.37;;
4268;SDS011;2148;48.554;7.834;2022-09-09T15:35:44;2.80;;;1.50;;
4268;SDS011;2148;48.554;7.834;2022-09-09T15:38:10;2.23;;;1.40;;
4268;SDS011;2148;48.554;7.834;2022-09-09T15:40:37;2.73;;;1.50;;
4268;SDS011;2148;48.554;7.834;2022-09-09T15:43:03;2.83;;;1.60;;
4268;SDS011;2148;48.554;7.834;2022-09-09T15:45:30;2.57;;;1.40;;
4268;SDS011;2148;48.554;7.834;2022-09-09T15:47:57;2.27;;;1.20;;
4268;SDS011;2148;48.554;7.834;2022-09-09T15:50:22;3.53;;;1.53;;
4268;SDS011;2148;48.554;7.834;2022-09-09T15:52:47;3.10;;;1.40;;
4268;SDS011;2148;48.554;7.834;2022-09-09T15:55:13;2.10;;;1.47;;
4268;SDS011;2148;48.554;7.834;2022-09-09T15:57:38;4.27;;;1.47;;
4268;SDS011;2148;48.554;7.834;2022-09-09T16:00:03;3.33;;;1.40;;
4268;SDS011;2148;48.554;7.834;2022-09-09T16:02:30;3.63;;;1.30;;
4268;SDS011;2148;48.554;7.834;2022-09-09T16:04:56;2.87;;;1.43;;
4268;SDS011;2148;48.554;7.834;2022-09-09T16:07:22;2.23;;;1.33;;
4268;SDS011;2148;48.554;7.834;2022-09-09T16:09:47;2.33;;;1.60;;
4268;SDS011;2148;48.554;7.834;2022-09-09T16:14:43;2.30;;;1.07;;
4268;SDS011;2148;48.554;7.834;2022-09-09T16:17:08;2.43;;;1.30;;
4268;SDS011;2148;48.554;7.834;2022-09-09T16:19:34;1.90;;;1.10;;
4268;SDS011;2148;48.554;7.834;2022-09-09T16:21:59;3.77;;;1.57;;
4268;SDS011;2148;48.554;7.834;2022-09-09T16:24:25;1.67;;;1.40;;
4268;SDS011;2148;48.554;7.834;2022-09-09T16:26:51;2.30;;;1.30;;
4268;SDS011;2148;48.554;7.834;2022-09-09T16:29:18;2.13;;;1.10;;
4268;SDS011;2148;48.554;7.834;2022-09-09T16:31:44;3.47;;;1.20;;
4268;SDS011;2148;48.554;7.834;2022-09-09T16:34:11;1.73;;;1.20;;
4268;SDS011;2148;48.554;7.834;2022-09-09T16:36:36;3.17;;;1.40;;
4268;SDS011;2148;48.554;7.834;2022-09-09T16:39:13;2.57;;;1.20;;
4268;SDS011;2148;48.554;7.834;2022-09-09T16:41:40;2.57;;;1.47;;
4268;SDS011;2148;48.554;7.834;2022-09-09T16:44:08;2.70;;;1.47;;
4268;SDS011;2148;48.554;7.834;2022-09-09T16:46:35;2.23;;;1.40;;
4268;SDS011;2148;48.554;7.834;2022-09-09T16:49:04;2.70;;;1.40;;
4268;SDS011;2148;48.554;7.834;2022-09-09T16:51:32;2.33;;;1.33;;
4268;SDS011;2148;48.554;7.834;2022-09-09T16:54:00;2.60;;;1.50;;
4268;SDS011;2148;48.554;7.834;2022-09-09T16:56:27;1.43;;;1.10;;
4268;SDS011;2148;48.554;7.834;2022-09-09T16:58:58;1.83;;;1.20;;
4268;SDS011;2148;48.554;7.834;2022-09-09T17:01:28;1.40;;;1.10;;
4268;SDS011;2148;48.554;7.834;2022-09-09T17:03:55;3.23;;;1.30;;
4268;SDS011;2148;48.554;7.834;2022-09-09T17:06:21;1.80;;;1.10;;
4268;SDS011;2148;48.554;7.834;2022-09-09T17:08:46;1.93;;;1.30;;
4268;SDS011;2148;48.554;7.834;2022-09-09T17:11:14;1.67;;;1.10;;
4268;SDS011;2148;48.554;7.834;2022-09-09T17:13:41;3.73;;;1.30;;
4268;SDS011;2148;48.554;7.834;2022-09-09T17:16:07;2.37;;;1.23;;
4268;SDS011;2148;48.554;7.834;2022-09-09T17:18:33;2.70;;;1.03;;
4268;SDS011;2148;48.554;7.834;2022-09-09T17:21:02;2.53;;;1.40;;
4268;SDS011;2148;48.554;7.834;2022-09-09T17:23:38;2.30;;;1.37;;
4268;SDS011;2148;48.554;7.834;2022-09-09T17:26:04;1.80;;;1.10;;
4268;SDS011;2148;48.554;7.834;2022-09-09T17:28:30;3.13;;;1.43;;
4268;SDS011;2148;48.554;7.834;2022-09-09T17:30:57;3.10;;;1.30;;
4268;SDS011;2148;48.554;7.834;2022-09-09T17:33:26;2.83;;;1.30;;